createdAt,value
2018-03-14T00:01:13.287Z,25.37
2018-03-14T00:03:41.039Z,25.10
2018-03-14T00:06:08.755Z,25.57
2018-03-14T00:08:36.471Z,27.75
2018-03-14T00:11:06.738Z,24.70
2018-03-14T00:13:38.659Z,26.90
2018-03-14T00:16:08.527Z,31.58
2018-03-14T00:18:42.837Z,27.02
2018-03-14T00:21:20.996Z,22.58
2018-03-14T00:23:51.670Z,29.10
2018-03-14T00:26:23.520Z,23.58
2018-03-14T00:28:53.797Z,21.50
2018-03-14T00:31:27.219Z,24.25
2018-03-14T00:34:04.491Z,26.67
2018-03-14T00:40:00.476Z,16.30
2018-03-14T00:42:28.919Z,18.23
2018-03-14T00:44:56.721Z,16.40
2018-03-14T00:47:25.335Z,17.20
2018-03-14T00:49:53.059Z,14.70
2018-03-14T00:52:20.741Z,16.62
2018-03-14T00:54:48.585Z,14.02
2018-03-14T00:57:16.358Z,16.27
2018-03-14T00:59:44.493Z,13.98
2018-03-14T01:02:12.240Z,19.43
2018-03-14T01:04:40.869Z,14.60
2018-03-14T01:07:09.439Z,14.33
2018-03-14T01:09:37.199Z,17.80
2018-03-14T01:12:09.636Z,17.17
2018-03-14T01:14:37.475Z,18.33
2018-03-14T01:17:05.423Z,14.10
2018-03-14T01:19:33.972Z,16.83
2018-03-14T01:22:02.445Z,12.80
2018-03-14T01:24:30.676Z,15.07
2018-03-14T01:26:59.312Z,13.50
2018-03-14T01:29:28.397Z,14.57
2018-03-14T01:31:58.507Z,12.45
2018-03-14T01:34:26.570Z,12.33
2018-03-14T01:36:57.272Z,12.07
2018-03-14T01:39:26.660Z,14.57
2018-03-14T01:41:55.512Z,13.52
2018-03-14T01:44:28.098Z,15.48
2018-03-14T01:47:03.374Z,11.83
2018-03-14T01:49:31.672Z,16.73
2018-03-14T01:51:59.376Z,12.18
2018-03-14T01:54:27.727Z,14.25
2018-03-14T01:56:55.445Z,12.00
2018-03-14T01:59:24.928Z,11.10
2018-03-14T02:01:53.136Z,9.97
2018-03-14T02:04:21.096Z,11.63
2018-03-14T02:06:49.069Z,15.43
2018-03-14T02:09:17.646Z,11.30
2018-03-14T02:11:45.371Z,10.10
2018-03-14T02:14:13.191Z,10.67
2018-03-14T02:16:40.891Z,12.93
2018-03-14T02:19:08.584Z,11.50
2018-03-14T02:21:36.416Z,11.20
2018-03-14T02:24:04.135Z,10.40
2018-03-14T02:26:32.713Z,10.23
2018-03-14T02:29:01.206Z,9.75
2018-03-14T02:31:29.835Z,10.10
2018-03-14T02:33:57.951Z,10.50
2018-03-14T02:36:37.339Z,9.90
2018-03-14T02:39:05.144Z,9.90
2018-03-14T02:41:33.617Z,10.27
2018-03-14T02:44:02.331Z,10.73
2018-03-14T02:46:31.133Z,9.67
2018-03-14T02:48:58.989Z,9.75
2018-03-14T02:51:27.691Z,10.10
2018-03-14T02:53:55.332Z,12.53
2018-03-14T02:56:23.972Z,14.77
2018-03-14T02:58:53.701Z,10.20
2018-03-14T03:01:23.543Z,11.40
2018-03-14T03:03:51.277Z,11.10
2018-03-14T03:06:19.553Z,12.00
2018-03-14T03:08:47.334Z,14.45
2018-03-14T03:11:15.116Z,12.65
2018-03-14T03:13:43.831Z,12.07
2018-03-14T03:16:11.594Z,14.77
2018-03-14T03:18:39.609Z,12.57
2018-03-14T03:21:07.256Z,11.98
2018-03-14T03:23:34.991Z,12.57
2018-03-14T03:26:02.751Z,11.40
2018-03-14T03:28:30.537Z,13.70
2018-03-14T03:30:58.192Z,12.93
2018-03-14T03:33:26.065Z,15.95
2018-03-14T03:35:54.092Z,15.70
2018-03-14T03:38:22.187Z,11.82
2018-03-14T03:40:49.826Z,16.27
2018-03-14T03:43:17.741Z,16.73
2018-03-14T03:45:47.134Z,14.77
2018-03-14T03:48:15.028Z,17.60
2018-03-14T03:50:42.749Z,14.97
2018-03-14T03:53:10.371Z,14.70
2018-03-14T03:55:38.089Z,15.53
2018-03-14T03:58:05.829Z,20.58
2018-03-14T04:00:34.622Z,17.93
2018-03-14T04:03:03.140Z,20.45
2018-03-14T04:05:30.789Z,17.58
2018-03-14T04:07:58.881Z,19.87
2018-03-14T04:10:26.762Z,20.13
2018-03-14T04:12:54.520Z,20.97
2018-03-14T04:15:22.531Z,27.48
2018-03-14T04:17:50.431Z,28.23
2018-03-14T04:20:20.158Z,21.92
2018-03-14T04:22:48.247Z,27.62
2018-03-14T04:25:17.679Z,23.40
2018-03-14T04:27:45.736Z,24.30
2018-03-14T04:30:19.795Z,25.00
2018-03-14T04:32:47.425Z,31.97
2018-03-14T04:35:15.485Z,23.08
2018-03-14T04:37:45.671Z,25.48
2018-03-14T04:40:13.418Z,27.23
2018-03-14T04:42:41.113Z,28.27
2018-03-14T04:45:08.861Z,24.53
2018-03-14T04:47:36.530Z,30.83
2018-03-14T04:50:05.075Z,32.63
2018-03-14T04:52:32.915Z,31.60
2018-03-14T04:55:00.669Z,57.40
2018-03-14T04:57:28.797Z,33.10
2018-03-14T05:02:38.287Z,27.33
2018-03-14T05:05:06.144Z,28.37
2018-03-14T05:07:34.071Z,33.20
2018-03-14T05:10:02.100Z,30.08
2018-03-14T05:12:29.909Z,29.87
2018-03-14T05:14:57.629Z,31.30
2018-03-14T05:17:25.377Z,38.47
2018-03-14T05:22:59.155Z,36.53
2018-03-14T05:25:27.247Z,42.10
2018-03-14T05:27:55.722Z,35.75
2018-03-14T05:30:24.370Z,35.58
2018-03-14T05:32:52.384Z,34.13
2018-03-14T05:35:20.256Z,36.17
2018-03-14T05:37:48.151Z,33.38
2018-03-14T05:40:17.007Z,33.27
2018-03-14T05:42:45.068Z,43.42
2018-03-14T05:45:12.965Z,36.97
2018-03-14T05:47:40.640Z,42.83
2018-03-14T05:50:09.231Z,40.33
2018-03-14T05:52:37.232Z,47.87
2018-03-14T05:55:04.918Z,41.00
2018-03-14T05:57:32.767Z,48.80
2018-03-14T06:00:02.980Z,50.85
2018-03-14T06:02:30.659Z,46.50
2018-03-14T06:04:58.902Z,51.37
2018-03-14T06:07:28.215Z,51.90
2018-03-14T06:09:56.068Z,50.80
2018-03-14T06:12:23.785Z,53.72
2018-03-14T06:14:52.887Z,58.33
2018-03-14T06:17:21.471Z,50.47
2018-03-14T06:19:51.725Z,53.50
2018-03-14T06:22:19.421Z,52.78
2018-03-14T06:24:47.197Z,49.83
2018-03-14T06:27:16.154Z,51.25
2018-03-14T06:29:44.203Z,54.07
2018-03-14T06:32:12.534Z,57.95
2018-03-14T06:34:40.554Z,58.53
2018-03-14T06:37:08.415Z,53.17
2018-03-14T06:39:36.251Z,64.97
2018-03-14T06:42:04.545Z,53.58
2018-03-14T06:44:32.501Z,59.90
2018-03-14T06:47:00.170Z,56.92
2018-03-14T06:49:27.871Z,54.47
2018-03-14T06:51:55.664Z,59.60
2018-03-14T06:54:23.424Z,60.00
2018-03-14T06:56:51.152Z,62.10
2018-03-14T06:59:31.387Z,60.47
2018-03-14T07:02:10.816Z,55.67
2018-03-14T07:04:47.045Z,51.85
2018-03-14T07:07:15.871Z,63.65
2018-03-14T07:09:43.799Z,56.03
2018-03-14T07:12:11.633Z,59.33
2018-03-14T07:14:39.353Z,61.70
2018-03-14T07:17:11.196Z,59.97
2018-03-14T07:22:26.786Z,64.47
2018-03-14T07:24:54.493Z,59.95
2018-03-14T07:27:22.245Z,56.23
2018-03-14T07:29:50.063Z,62.23
2018-03-14T07:32:17.854Z,57.80
2018-03-14T07:34:46.853Z,57.70
2018-03-14T07:37:15.447Z,57.13
2018-03-14T07:39:44.743Z,53.37
2018-03-14T07:42:18.964Z,55.65
2018-03-14T07:44:47.024Z,59.57
2018-03-14T07:47:16.309Z,55.13
2018-03-14T07:49:44.080Z,55.03
2018-03-14T07:52:11.856Z,59.80
2018-03-14T07:54:39.653Z,57.62
2018-03-14T07:57:07.433Z,49.30
2018-03-14T07:59:35.359Z,46.80
2018-03-14T08:02:03.846Z,45.17
2018-03-14T08:04:32.999Z,44.90
2018-03-14T08:07:00.711Z,39.60
2018-03-14T08:09:28.478Z,44.80
2018-03-14T08:11:57.166Z,55.12
2018-03-14T08:14:25.359Z,38.27
2018-03-14T08:16:53.793Z,42.43
2018-03-14T08:19:25.647Z,37.83
2018-03-14T08:21:54.420Z,46.03
2018-03-14T08:24:22.238Z,39.08
2018-03-14T08:26:50.029Z,39.00
2018-03-14T08:29:17.747Z,27.27
2018-03-14T08:31:59.252Z,30.33
2018-03-14T08:34:27.915Z,34.57
2018-03-14T08:36:55.674Z,30.90
2018-03-14T08:39:24.189Z,35.80
2018-03-14T08:41:52.726Z,37.83
2018-03-14T08:44:20.894Z,34.30
2018-03-14T08:46:49.031Z,34.10
2018-03-14T08:49:16.806Z,31.93
2018-03-14T08:51:44.528Z,24.57
2018-03-14T08:54:12.387Z,30.67
2018-03-14T08:56:55.242Z,10.40
2018-03-14T08:59:23.036Z,12.77
2018-03-14T09:01:57.488Z,11.40
2018-03-14T09:04:25.575Z,12.50
2018-03-14T09:06:58.658Z,11.37
2018-03-14T09:12:13.322Z,10.97
2018-03-14T09:14:41.146Z,13.33
2018-03-14T09:17:10.083Z,15.80
2018-03-14T09:19:38.317Z,16.00
2018-03-14T09:22:06.097Z,10.10
2018-03-14T09:24:34.890Z,11.17
2018-03-14T09:27:02.790Z,13.33
2018-03-14T09:29:31.014Z,14.07
2018-03-14T09:32:13.510Z,11.93
2018-03-14T09:34:42.304Z,11.87
2018-03-14T09:37:10.735Z,12.90
2018-03-14T09:39:38.552Z,11.90
2018-03-14T09:42:06.393Z,12.37
2018-03-14T09:44:36.082Z,13.63
2018-03-14T09:47:07.389Z,14.17
2018-03-14T09:49:35.298Z,14.80
2018-03-14T09:52:03.134Z,17.27
2018-03-14T09:54:31.478Z,13.77
2018-03-14T09:56:59.535Z,16.90
2018-03-14T09:59:29.582Z,15.37
2018-03-14T10:01:57.366Z,14.00
2018-03-14T10:04:25.060Z,15.93
2018-03-14T10:06:55.577Z,20.87
2018-03-14T10:09:23.327Z,14.57
2018-03-14T10:11:52.432Z,13.83
2018-03-14T10:14:20.232Z,14.70
2018-03-14T10:16:47.962Z,14.60
2018-03-14T10:19:15.776Z,12.97
2018-03-14T10:21:43.584Z,12.57
2018-03-14T10:24:11.663Z,12.03
2018-03-14T10:26:39.642Z,12.83
2018-03-14T10:29:07.470Z,12.63
2018-03-14T10:31:39.019Z,13.70
2018-03-14T10:36:45.412Z,11.10
2018-03-14T10:39:13.173Z,9.90
2018-03-14T10:44:37.824Z,10.10
2018-03-14T10:47:06.593Z,9.80
2018-03-14T10:49:38.419Z,10.63
2018-03-14T10:52:30.184Z,11.03
2018-03-14T10:54:58.120Z,10.10
2018-03-14T10:57:29.252Z,11.13
2018-03-14T10:59:58.158Z,10.70
2018-03-14T11:02:30.582Z,11.17
2018-03-14T11:04:58.464Z,10.47
2018-03-14T11:07:26.344Z,10.37
2018-03-14T11:09:54.442Z,11.97
2018-03-14T11:12:22.163Z,9.77
2018-03-14T11:14:50.370Z,8.90
2018-03-14T11:17:19.059Z,10.17
2018-03-14T11:19:46.890Z,8.50
2018-03-14T11:22:14.795Z,8.43
2018-03-14T11:24:43.311Z,8.70
2018-03-14T11:27:11.138Z,8.10
2018-03-14T11:29:40.580Z,8.87
2018-03-14T11:32:08.980Z,7.50
2018-03-14T11:34:36.803Z,8.47
2018-03-14T11:37:05.648Z,7.20
2018-03-14T11:39:33.654Z,7.70
2018-03-14T11:42:02.070Z,6.60
2018-03-14T11:44:29.908Z,7.27
2018-03-14T11:46:57.619Z,4.97
2018-03-14T11:49:25.977Z,4.80
2018-03-14T11:51:53.727Z,5.30
2018-03-14T11:54:21.442Z,5.07
2018-03-14T11:56:49.156Z,7.17
2018-03-14T11:59:25.374Z,6.20
2018-03-14T12:01:53.960Z,6.37
2018-03-14T12:04:23.353Z,6.50
2018-03-14T12:06:51.083Z,9.33
2018-03-14T12:09:18.765Z,7.10
2018-03-14T12:11:47.441Z,7.00
2018-03-14T12:14:15.403Z,7.00
2018-03-14T12:16:43.168Z,6.07
2018-03-14T12:19:10.929Z,7.77
2018-03-14T12:21:38.747Z,7.03
2018-03-14T12:24:06.503Z,7.40
2018-03-14T12:26:35.158Z,11.43
2018-03-14T12:29:03.219Z,7.90
2018-03-14T12:31:31.272Z,7.23
2018-03-14T12:33:59.084Z,7.30
2018-03-14T12:36:28.387Z,6.27
2018-03-14T12:38:57.036Z,6.00
2018-03-14T12:41:24.811Z,7.23
2018-03-14T12:43:52.677Z,6.93
2018-03-14T12:46:21.146Z,8.03
2018-03-14T12:48:49.571Z,7.20
2018-03-14T12:51:17.757Z,7.43
2018-03-14T12:53:46.177Z,7.30
2018-03-14T12:56:14.913Z,7.23
2018-03-14T12:58:42.876Z,8.93
2018-03-14T13:01:10.616Z,6.80
2018-03-14T13:03:39.359Z,7.97
2018-03-14T13:06:08.038Z,8.57
2018-03-14T13:08:36.851Z,6.73
2018-03-14T13:11:05.442Z,8.57
2018-03-14T13:13:33.391Z,7.73
2018-03-14T13:16:01.175Z,7.53
2018-03-14T13:18:29.531Z,7.23
2018-03-14T13:20:57.407Z,7.47
2018-03-14T13:23:25.205Z,6.93
2018-03-14T13:25:53.030Z,7.43
2018-03-14T13:28:22.072Z,6.20
2018-03-14T13:30:54.356Z,7.53
2018-03-14T13:33:22.850Z,7.60
2018-03-14T13:35:50.589Z,8.70
2018-03-14T13:38:19.178Z,7.70
2018-03-14T13:40:47.548Z,7.90
2018-03-14T13:43:16.404Z,10.33
2018-03-14T13:45:44.814Z,7.00
2018-03-14T13:48:13.082Z,8.10
2018-03-14T13:50:41.047Z,8.53
2018-03-14T13:53:12.351Z,7.97
2018-03-14T13:55:40.355Z,7.33
2018-03-14T13:58:09.990Z,7.40
2018-03-14T14:00:38.202Z,7.77
2018-03-14T14:03:07.442Z,8.23
2018-03-14T14:06:06.664Z,7.10
2018-03-14T14:08:54.695Z,7.93
2018-03-14T14:11:24.133Z,8.23
2018-03-14T14:13:52.773Z,8.20
2018-03-14T14:16:27.421Z,9.00
2018-03-14T14:19:02.115Z,7.63
2018-03-14T14:21:41.591Z,13.00
2018-03-14T14:24:09.557Z,8.63
2018-03-14T14:26:37.382Z,10.73
2018-03-14T14:29:08.748Z,8.20
2018-03-14T14:31:36.527Z,7.10
2018-03-14T14:34:06.141Z,7.13
2018-03-14T14:36:41.371Z,7.20
2018-03-14T14:39:09.181Z,7.80
2018-03-14T14:41:36.946Z,8.43
2018-03-14T14:44:05.437Z,7.30
2018-03-14T14:46:35.283Z,7.07
2018-03-14T14:49:03.142Z,7.43
2018-03-14T14:51:31.787Z,6.63
2018-03-14T14:54:01.679Z,7.13
2018-03-14T14:56:30.095Z,6.27
2018-03-14T14:58:59.346Z,6.47
2018-03-14T15:01:28.410Z,8.60
2018-03-14T15:03:56.250Z,6.00
2018-03-14T15:06:24.325Z,5.60
2018-03-14T15:08:55.813Z,6.23
2018-03-14T15:14:07.869Z,7.40
2018-03-14T15:16:39.774Z,4.67
2018-03-14T15:19:09.396Z,4.87
2018-03-14T15:21:37.393Z,4.90
2018-03-14T15:24:14.656Z,4.57
2018-03-14T15:26:48.993Z,4.80
2018-03-14T15:29:27.008Z,5.07
2018-03-14T15:31:56.076Z,4.57
2018-03-14T15:34:39.372Z,4.23
2018-03-14T15:37:07.736Z,5.00
2018-03-14T15:39:42.525Z,4.40
2018-03-14T15:45:50.696Z,4.70
2018-03-14T15:48:22.098Z,4.20
2018-03-14T15:50:49.938Z,5.03
2018-03-14T15:53:21.897Z,4.97
2018-03-14T15:55:51.805Z,4.90
2018-03-14T15:58:38.987Z,4.57
2018-03-14T16:01:11.711Z,4.13
2018-03-14T16:03:39.470Z,4.17
2018-03-14T16:06:08.586Z,4.10
2018-03-14T16:08:49.821Z,5.00
2018-03-14T16:11:24.885Z,4.30
2018-03-14T16:13:53.480Z,3.80
2018-03-14T16:16:23.067Z,4.33
2018-03-14T16:18:52.282Z,4.20
2018-03-14T16:21:20.358Z,11.23
2018-03-14T16:23:51.817Z,3.53
2018-03-14T16:26:21.302Z,3.73
2018-03-14T16:28:49.884Z,7.20
2018-03-14T16:31:18.389Z,3.87
2018-03-14T16:33:57.642Z,4.17
2018-03-14T16:36:40.282Z,4.03
2018-03-14T16:39:14.863Z,3.90
2018-03-14T16:44:24.438Z,8.33
2018-03-14T16:46:52.351Z,4.20
2018-03-14T16:49:27.020Z,3.67
2018-03-14T16:51:56.182Z,5.30
2018-03-14T16:54:31.703Z,4.73
2018-03-14T16:57:03.924Z,4.73
2018-03-14T16:59:35.451Z,6.87
2018-03-14T17:02:04.956Z,3.90
2018-03-14T17:04:40.922Z,4.30
2018-03-14T17:07:08.764Z,4.33
2018-03-14T17:09:41.891Z,4.03
2018-03-14T17:12:19.283Z,3.70
2018-03-14T17:14:47.036Z,4.03
2018-03-14T17:17:15.492Z,4.20
2018-03-14T17:19:43.242Z,4.17
2018-03-14T17:22:11.143Z,4.00
2018-03-14T17:24:39.712Z,3.80
2018-03-14T17:27:09.120Z,4.60
2018-03-14T17:29:40.781Z,3.63
2018-03-14T17:32:08.596Z,3.90
2018-03-14T17:34:38.028Z,3.80
2018-03-14T17:37:06.467Z,3.57
2018-03-14T17:39:37.463Z,3.53
2018-03-14T17:42:07.171Z,4.40
2018-03-14T17:44:34.840Z,3.90
2018-03-14T17:47:03.638Z,3.90
2018-03-14T17:49:31.401Z,4.03
2018-03-14T17:52:01.151Z,3.77
2018-03-14T17:54:32.458Z,4.07
2018-03-14T17:57:03.967Z,3.93
2018-03-14T17:59:35.821Z,4.13
2018-03-14T18:02:03.622Z,4.13
2018-03-14T18:04:31.576Z,4.20
2018-03-14T18:06:59.575Z,4.10
2018-03-14T18:09:28.066Z,7.77
2018-03-14T18:11:55.929Z,4.43
2018-03-14T18:14:23.887Z,3.87
2018-03-14T18:16:53.146Z,4.03
2018-03-14T18:19:21.060Z,4.47
2018-03-14T18:21:48.851Z,3.77
2018-03-14T18:24:19.942Z,5.00
2018-03-14T18:26:47.739Z,5.23
2018-03-14T18:29:22.880Z,4.83
2018-03-14T18:31:50.817Z,4.73
2018-03-14T18:34:19.446Z,4.03
2018-03-14T18:36:47.255Z,4.27
2018-03-14T18:39:15.045Z,5.00
2018-03-14T18:41:44.458Z,3.80
2018-03-14T18:44:13.014Z,3.93
2018-03-14T18:46:42.368Z,4.00
2018-03-14T18:49:10.930Z,4.03
2018-03-14T18:51:39.897Z,5.60
2018-03-14T18:54:07.758Z,4.97
2018-03-14T18:56:38.973Z,4.43
2018-03-14T18:59:06.764Z,4.03
2018-03-14T19:01:34.781Z,4.57
2018-03-14T19:04:03.911Z,4.93
2018-03-14T19:06:31.626Z,5.00
2018-03-14T19:08:59.443Z,5.03
2018-03-14T19:11:31.671Z,5.27
2018-03-14T19:13:59.685Z,4.87
2018-03-14T19:16:27.957Z,7.10
2018-03-14T19:18:56.461Z,5.43
2018-03-14T19:21:27.098Z,8.43
2018-03-14T19:23:59.685Z,6.00
2018-03-14T19:26:28.158Z,7.63
2018-03-14T19:29:03.342Z,6.10
2018-03-14T19:31:49.204Z,6.80
2018-03-14T19:34:22.288Z,6.30
2018-03-14T19:39:37.761Z,7.33
2018-03-14T19:42:08.779Z,9.10
2018-03-14T19:44:37.583Z,8.67
2018-03-14T19:47:07.549Z,12.20
2018-03-14T19:49:39.790Z,7.20
2018-03-14T19:52:07.706Z,7.43
2018-03-14T19:54:35.596Z,8.17
2018-03-14T19:57:03.538Z,7.53
2018-03-14T19:59:35.231Z,6.97
2018-03-14T20:02:04.063Z,11.30
2018-03-14T20:04:31.858Z,7.23
2018-03-14T20:06:59.594Z,8.33
2018-03-14T20:09:29.075Z,6.50
2018-03-14T20:12:01.057Z,7.83
2018-03-14T20:14:29.093Z,7.90
2018-03-14T20:16:59.757Z,8.07
2018-03-14T20:19:27.644Z,7.90
2018-03-14T20:21:56.410Z,8.67
2018-03-14T20:24:24.172Z,8.70
2018-03-14T20:26:52.241Z,9.00
2018-03-14T20:29:21.232Z,8.60
2018-03-14T20:31:50.126Z,10.27
2018-03-14T20:34:17.963Z,10.60
2018-03-14T20:36:50.271Z,10.20
2018-03-14T20:39:20.322Z,9.07
2018-03-14T20:42:17.272Z,12.07
2018-03-14T20:44:49.897Z,14.57
2018-03-14T20:47:17.901Z,11.13
2018-03-14T20:49:46.989Z,9.80
2018-03-14T20:52:16.265Z,9.40
2018-03-14T20:54:44.296Z,9.63
2018-03-14T20:57:13.840Z,9.83
2018-03-14T20:59:43.705Z,9.80
2018-03-14T21:02:11.669Z,13.17
2018-03-14T21:04:42.951Z,10.17
2018-03-14T21:07:18.426Z,11.17
2018-03-14T21:09:47.600Z,14.50
2018-03-14T21:12:19.464Z,10.87
2018-03-14T21:14:48.054Z,12.77
2018-03-14T21:17:15.907Z,14.57
2018-03-14T21:19:45.607Z,13.93
2018-03-14T21:22:18.216Z,14.10
2018-03-14T21:24:46.099Z,17.13
2018-03-14T21:27:14.338Z,12.30
2018-03-14T21:29:42.171Z,13.80
2018-03-14T21:32:10.901Z,13.33
2018-03-14T21:34:38.861Z,20.00
2018-03-14T21:37:07.319Z,13.50
2018-03-14T21:39:35.990Z,14.40
2018-03-14T21:42:05.033Z,22.10
2018-03-14T21:44:33.934Z,14.70
2018-03-14T21:47:08.776Z,18.30
2018-03-14T21:49:36.540Z,14.00
2018-03-14T21:52:04.423Z,15.43
2018-03-14T21:54:35.047Z,16.20
2018-03-14T21:57:14.569Z,21.23
2018-03-14T21:59:43.377Z,20.70
2018-03-14T22:02:14.783Z,23.67
2018-03-14T22:04:43.348Z,18.00
2018-03-14T22:07:12.012Z,18.63
2018-03-14T22:09:41.056Z,16.37
2018-03-14T22:12:08.967Z,27.53
2018-03-14T22:14:38.934Z,18.10
2018-03-14T22:17:07.023Z,15.87
2018-03-14T22:19:50.937Z,19.07
2018-03-14T22:22:26.017Z,16.43
2018-03-14T22:24:56.395Z,20.02
2018-03-14T22:30:08.357Z,19.27
2018-03-14T22:32:36.052Z,18.83
2018-03-14T22:35:05.599Z,17.63
2018-03-14T22:37:34.500Z,19.03
2018-03-14T22:40:05.362Z,19.57
2018-03-14T22:42:41.289Z,16.30
2018-03-14T22:45:14.500Z,19.20
2018-03-14T22:47:43.215Z,23.70
2018-03-14T22:50:26.438Z,23.97
2018-03-14T22:52:55.013Z,18.47
2018-03-14T22:55:26.840Z,18.60
2018-03-14T22:58:06.983Z,18.30
2018-03-14T23:00:53.686Z,20.57
2018-03-14T23:03:36.276Z,22.80
2018-03-14T23:06:24.834Z,16.40
2018-03-14T23:08:55.814Z,20.00
2018-03-14T23:11:25.859Z,21.87
2018-03-14T23:13:56.301Z,18.93
2018-03-14T23:16:31.743Z,18.80
2018-03-14T23:19:00.854Z,20.33
2018-03-14T23:21:29.170Z,16.87
2018-03-14T23:23:57.962Z,21.70
2018-03-14T23:26:25.963Z,16.90
2018-03-14T23:28:53.789Z,18.80
2018-03-14T23:31:22.722Z,14.98
2018-03-14T23:33:51.406Z,20.20
2018-03-14T23:36:20.123Z,17.17
2018-03-14T23:38:47.808Z,18.17
2018-03-14T23:41:24.071Z,17.90
2018-03-14T23:43:52.152Z,20.70
2018-03-14T23:46:20.113Z,20.40
2018-03-14T23:48:47.986Z,16.90
2018-03-14T23:51:15.772Z,23.63
2018-03-14T23:53:44.551Z,17.23
2018-03-14T23:56:16.680Z,14.60
2018-03-14T23:58:45.740Z,19.58
